TimeMDT,TemperatureF,Dew PointF,Humidity,Sea Level PressureIn,VisibilityMPH,Wind Direction,Wind SpeedMPH,Gust SpeedMPH,PrecipitationIn,Events,Conditions,WindDirDegrees,DateUTC
12:53 AM,46.9,19.9,34,30.13,10.0,SSE,3.5,-,N/A,,Clear,150,2013-03-14 06:53:00
1:53 AM,44.1,19.9,38,30.13,10.0,SSE,6.9,-,N/A,,Clear,150,2013-03-14 07:53:00
2:53 AM,41.0,19.0,41,30.12,10.0,West,3.5,-,N/A,,Clear,280,2013-03-14 08:53:00
3:53 AM,39.9,19.0,43,30.11,10.0,Calm,Calm,-,N/A,,Clear,0,2013-03-14 09:53:00
4:53 AM,39.9,19.9,45,30.12,10.0,NNW,4.6,-,N/A,,Clear,340,2013-03-14 10:53:00
5:53 AM,39.0,19.0,45,30.14,8.0,NW,3.5,-,N/A,,Clear,320,2013-03-14 11:53:00
6:53 AM,37.9,19.9,48,30.16,10.0,WNW,3.5,-,N/A,,Clear,290,2013-03-14 12:53:00
7:53 AM,42.1,19.9,41,30.19,10.0,NW,4.6,-,N/A,,Clear,320,2013-03-14 13:53:00
8:53 AM,51.1,21.9,32,30.21,9.0,Calm,Calm,-,N/A,,Clear,0,2013-03-14 14:53:00
9:53 AM,55.9,25.0,30,30.21,10.0,Calm,Calm,-,N/A,,Clear,0,2013-03-14 15:53:00
10:53 AM,62.1,23.0,22,30.20,10.0,Variable,3.5,-,N/A,,Clear,0,2013-03-14 16:53:00
11:53 AM,69.1,19.9,15,30.16,10.0,North,3.5,-,N/A,,Clear,360,2013-03-14 17:53:00
12:53 PM,73.9,19.0,13,30.13,10.0,SE,3.5,-,N/A,,Clear,140,2013-03-14 18:53:00
1:53 PM,80.1,16.0,9,30.09,10.0,SSE,5.8,-,N/A,,Clear,150,2013-03-14 19:53:00
2:53 PM,81.0,10.9,7,30.06,10.0,Calm,Calm,-,N/A,,Clear,0,2013-03-14 20:53:00
3:53 PM,82.0,12.0,7,30.03,10.0,Calm,Calm,-,N/A,,Clear,0,2013-03-14 21:53:00
4:53 PM,82.0,10.9,7,30.02,10.0,Variable,3.5,-,N/A,,Clear,0,2013-03-14 22:53:00
5:53 PM,82.0,12.0,7,30.02,10.0,East,5.8,-,N/A,,Clear,100,2013-03-14 23:53:00
6:53 PM,75.0,12.9,9,30.03,10.0,ENE,6.9,-,N/A,,Clear,70,2013-03-15 00:53:00
7:53 PM,70.0,15.1,12,30.04,10.0,SE,5.8,-,N/A,,Clear,140,2013-03-15 01:53:00
8:53 PM,60.1,15.1,17,30.05,10.0,South,8.1,-,N/A,,Clear,190,2013-03-15 02:53:00
9:53 PM,55.9,15.1,20,30.06,10.0,South,10.4,-,N/A,,Clear,190,2013-03-15 03:53:00
10:53 PM,60.1,14.0,16,30.05,10.0,SSE,10.4,-,N/A,,Clear,160,2013-03-15 04:53:00
11:53 PM,55.0,14.0,20,30.04,10.0,South,6.9,-,N/A,,Clear,170,2013-03-15 05:53:00